Flight Track Log - Related Links

Times and Time Zones

All times are in EDT time to prevent confusion due to time zone crossing. See the SWA1802 flight status page for this flight to view local times or setup timezone preferences in your user account.


Time Position Orientation Groundspeed Altitude Reporting Facility
EDT Latitude Longitude Course Direction KTS MPH feet Rate Location/Type
Mon 07:36:23 PM 41.8167 -87.7333 270° West 179 206 2,100  Level Chicago TRACON
Mon 07:37:23 PM 41.8167 -87.8000 270° West 237 273 3,100 667 Climbing Chicago TRACON
Mon 07:38:02 PM 41.7994 -87.8542 247° West 234 269 3,200 832 Climbing Chicago Center
Mon 07:39:04 PM 41.7722 -87.9308 245° Southwest 231 266 4,500 1,597 Climbing Chicago Center
Mon 07:40:06 PM 41.7614 -88.0236 261° West 253 291 6,500 1,887 Climbing Chicago Center
Mon 07:41:08 PM 41.7556 -88.1214 265° West 265 305 8,400 2,064 Climbing Chicago Center
Mon 07:42:11 PM 41.7472 -88.2431 265° West 276 318 10,800 1,728 Climbing Chicago Center
Mon 07:43:13 PM 41.7369 -88.3650 264° West 326 375 12,000 1,742 Climbing Chicago Center
Mon 07:44:15 PM 41.7228 -88.4978 262° West 361 415 14,400 2,226 Climbing Chicago Center
Mon 07:45:17 PM 41.7058 -88.6367 261° West 379 436 16,600 2,177 Climbing Chicago Center
Mon 07:46:19 PM 41.7078 -88.7769 271° West 384 442 18,900 2,419 Climbing Chicago Center
Mon 07:47:21 PM 41.6878 -88.9475 261° West 393 452 21,600 2,177 Climbing Chicago Center
Mon 07:48:23 PM 41.6756 -89.0928 264° West 397 457 23,400 1,548 Climbing Chicago Center
Mon 07:49:25 PM 41.6597 -89.2431 262° West 412 474 24,800 1,306 Climbing Chicago Center
Mon 07:50:27 PM 41.6386 -89.3975 260° West 424 488 26,100 1,548 Climbing Chicago Center
Mon 07:51:29 PM 41.6147 -89.5858 260° West 432 497 28,000 1,548 Climbing Chicago Center
Mon 07:52:31 PM 41.5939 -89.7478 260° West 441 507 29,300 1,306 Climbing Chicago Center
Mon 07:53:33 PM 41.5719 -89.9067 260° West 440 506 30,700 1,306 Climbing Chicago Center
Mon 07:54:35 PM 41.5508 -90.0664 260° West 439 505 32,000 1,152 Climbing Chicago Center
Mon 07:55:38 PM 41.5286 -90.2256 259° West 439 505 33,100 1,008 Climbing Chicago Center
Mon 07:56:40 PM 41.5064 -90.3836 259° West 438 504 34,100 1,016 Climbing Chicago Center
Mon 07:57:42 PM 41.4800 -90.5756 260° West 439 505 35,200 919 Climbing Chicago Center
Mon 07:58:44 PM 41.4578 -90.7336 259° West 438 504 36,000 387 Climbing Chicago Center
Mon 07:59:46 PM 41.4356 -90.8894 259° West 432 497 36,000  Level Chicago Center
Mon 08:00:48 PM 41.4128 -91.0472 259° West 434 499 36,000  Level Chicago Center
Mon 08:01:50 PM 41.3897 -91.2025 259° West 431 496 36,000  Level Chicago Center
Mon 08:02:52 PM 41.3647 -91.3778 259° West 431 496 36,000  Level Chicago Center
Mon 08:03:54 PM 41.3417 -91.5347 259° West 433 498 36,000  Level Chicago Center
Mon 08:04:56 PM 41.3183 -91.6906 259° West 433 498 36,000  Level Chicago Center
Mon 08:05:58 PM 41.2942 -91.8478 258° West 435 501 36,000  Level Chicago Center
Mon 08:07:00 PM 41.2650 -92.0367 258° West 437 503 36,000  Level Chicago Center
Mon 08:08:03 PM 41.2414 -92.1931 259° West 435 501 36,000  Level Chicago Center
Mon 08:09:05 PM 41.2153 -92.3583 258° West 434 499 36,000  Level Chicago Center
Mon 08:10:07 PM 41.1911 -92.5131 258° West 434 499 36,000  Level Chicago Center
Mon 08:11:09 PM 41.1661 -92.6653 258° West 430 495 36,000  Level Chicago Center
Mon 08:12:11 PM 41.1419 -92.8183 258° West 429 494 36,000  Level Chicago Center
Mon 08:13:13 PM 41.1122 -93.0003 258° West 427 491 36,000  Level Chicago Center
Mon 08:14:13 PM 41.0872 -93.1533 258° West 428 493 36,000  Level Minneapolis Center
Mon 08:15:15 PM 41.0642 -93.3008 258° West 420 483 36,000  Level Minneapolis Center
Mon 08:16:17 PM 41.0386 -93.4531 257° West 425 489 36,000  Level Minneapolis Center
Mon 08:17:18 PM 41.0133 -93.6061 258° West 429 494 36,000  Level Minneapolis Center
Mon 08:18:20 PM 40.9814 -93.7894 257° West 430 495 36,000  Level Minneapolis Center
Mon 08:19:22 PM 40.9558 -93.9411 257° West 429 494 36,000  Level Minneapolis Center
Mon 08:20:23 PM 40.9303 -94.0917 257° West 426 490 36,000  Level Minneapolis Center
Mon 08:21:25 PM 40.9042 -94.2433 257° West 427 491 36,000  Level Minneapolis Center
Mon 08:22:27 PM 40.8758 -94.3953 256° West 427 491 36,000  Level Minneapolis Center
Mon 08:23:29 PM 40.8433 -94.5708 256° West 427 491 36,000  Level Minneapolis Center
Mon 08:24:30 PM 40.8158 -94.7253 257° West 430 495 36,000  Level Minneapolis Center
Mon 08:25:32 PM 40.7886 -94.8800 257° West 430 495 36,000  Level Minneapolis Center
Mon 08:26:34 PM 40.7614 -95.0306 257° West 426 490 36,000  Level Minneapolis Center
Mon 08:27:36 PM 40.7339 -95.1822 257° West 425 489 36,000  Level Minneapolis Center
Mon 08:28:37 PM 40.7044 -95.3375 256° West 430 495 36,000  Level Minneapolis Center
Mon 08:29:39 PM 40.6767 -95.4889 256° West 427 491 36,000  Level Minneapolis Center
Mon 08:30:41 PM 40.6436 -95.6678 256° West 420 483 36,000  Level Minneapolis Center
Mon 08:31:43 PM 40.6147 -95.8158 256° West 418 481 36,000  Level Minneapolis Center
Mon 08:32:45 PM 40.5869 -95.9650 256° West 418 481 36,000  Level Minneapolis Center
Mon 08:33:47 PM 40.5583 -96.1139 256° West 419 482 36,000  Level Minneapolis Center
Mon 08:34:48 PM 40.5292 -96.2622 256° West 418 481 36,000  Level Minneapolis Center
Mon 08:35:50 PM 40.5014 -96.4108 256° West 418 481 36,000  Level Minneapolis Center
Mon 08:36:52 PM 40.4722 -96.5594 256° West 419 482 36,000  Level Minneapolis Center
Mon 08:37:54 PM 40.4436 -96.7056 256° West 416 479 36,000  Level Minneapolis Center
Mon 08:38:56 PM 40.4075 -96.8836 255° West 419 482 36,000  Level Minneapolis Center
Mon 08:39:58 PM 40.3783 -97.0314 256° West 420 483 36,000  Level Minneapolis Center
Mon 08:41:00 PM 40.3478 -97.1797 255° West 420 483 36,000  Level Minneapolis Center
Mon 08:42:02 PM 40.3175 -97.3289 255° West 422 486 36,000  Level Minneapolis Center
Mon 08:43:04 PM 40.2836 -97.4967 255° West 422 486 36,000  Level Minneapolis Center
Mon 08:44:06 PM 40.2522 -97.6461 255° West 424 488 36,000  Level Minneapolis Center
Mon 08:45:08 PM 40.2219 -97.7942 255° West 422 486 36,000  Level Minneapolis Center
Mon 08:46:10 PM 40.1903 -97.9414 254° West 420 483 36,000  Level Minneapolis Center
Mon 08:47:12 PM 40.1589 -98.0881 254° West 419 482 36,000  Level Minneapolis Center
Mon 08:48:15 PM 40.1281 -98.2356 255° West 420 483 36,000  Level Minneapolis Center
Mon 08:49:17 PM 40.0903 -98.4119 254° West 419 482 36,000  Level Minneapolis Center
Mon 08:50:19 PM 40.0589 -98.5597 255° West 421 484 36,000  Level Minneapolis Center
Mon 08:51:21 PM 40.0261 -98.7067 254° West 421 484 36,000  Level Minneapolis Center
Mon 08:52:23 PM 39.9939 -98.8550 254° West 423 487 36,000  Level Minneapolis Center
Mon 08:53:17 PM 39.9683 -98.9742 254° West 426 490 36,000  Level Denver Center
Mon 08:54:18 PM 39.9289 -99.1511 254° West 424 488 36,000  Level Denver Center
Mon 08:55:20 PM 39.8958 -99.2981 254° West 423 487 36,000  Level Denver Center
Mon 08:56:22 PM 39.8631 -99.4469 254° West 425 489 36,000  Level Denver Center
Mon 08:57:23 PM 39.8289 -99.5925 253° West 423 487 36,000  Level Denver Center
Mon 08:58:25 PM 39.7950 -99.7400 253° West 424 488 36,000  Level Denver Center
Mon 08:59:27 PM 39.7611 -99.8903 254° West 432 497 36,000  Level Denver Center
Mon 09:00:28 PM 39.7269 -100.0378 253° West 431 496 36,000  Level Denver Center
Mon 09:01:30 PM 39.6883 -100.2056 253° West 433 498 36,000  Level Denver Center
Mon 09:02:32 PM 39.6542 -100.3481 253° West 431 496 36,000  Level Denver Center
Mon 09:03:34 PM 39.6156 -100.5136 253° West 429 494 36,000  Level Denver Center
Mon 09:04:35 PM 39.5817 -100.6556 253° West 429 494 36,000  Level Denver Center
Mon 09:05:37 PM 39.5431 -100.8208 253° West 430 495 36,000  Level Denver Center
Mon 09:06:39 PM 39.5089 -100.9619 253° West 429 494 36,000  Level Denver Center
Mon 09:07:41 PM 39.4747 -101.1031 253° West 429 494 36,000  Level Denver Center
Mon 09:08:42 PM 39.4347 -101.2683 253° West 430 495 36,000  Level Denver Center
Mon 09:09:44 PM 39.4000 -101.4092 252° West 429 494 36,000  Level Denver Center
Mon 09:10:46 PM 39.3600 -101.5742 253° West 430 495 36,000  Level Denver Center
Mon 09:11:48 PM 39.3244 -101.7161 252° West 433 498 36,000  Level Denver Center
Mon 09:12:49 PM 39.2847 -101.8694 252° West 431 496 36,000  Level Denver Center
Mon 09:13:51 PM 39.2500 -102.0106 252° West 433 498 36,000  Level Denver Center
Mon 09:14:53 PM 39.2086 -102.1725 252° West 429 494 36,000  Level Denver Center
Mon 09:15:55 PM 39.1739 -102.3122 252° West 429 494 36,000  Level Denver Center
Mon 09:16:56 PM 39.1325 -102.4739 252° West 427 491 36,000  Level Denver Center
Mon 09:17:58 PM 39.0972 -102.6106 252° West 423 487 36,000  Level Denver Center
Mon 09:19:00 PM 39.0544 -102.7747 251° West 425 489 36,000  Level Denver Center
Mon 09:20:02 PM 39.0161 -102.9203 251° West 428 493 36,000  Level Denver Center
Mon 09:21:03 PM 38.9778 -103.0664 251° West 430 495 36,000  Level Denver Center
Mon 09:22:05 PM 38.9403 -103.2108 252° West 428 493 36,000  Level Denver Center
Mon 09:23:07 PM 38.9017 -103.3556 251° West 428 493 36,000  Level Denver Center
Mon 09:24:09 PM 38.8644 -103.4972 251° West 422 486 36,000  Level Denver Center
Mon 09:25:23 PM 38.8158 -103.6775 251° West 418 481 36,000  Level Denver Center
Mon 09:26:24 PM 38.7853 -103.7903 251° West 421 484 36,000  Level Denver Center
Mon 09:27:26 PM 38.7361 -103.9697 251° West 418 481 36,000  Level Denver Center
Mon 09:28:40 PM 38.6881 -104.1472 251° West 419 482 36,000  Level Denver Center
Mon 09:29:42 PM 38.6500 -104.2867 251° West 417 480 36,000  Level Denver Center
Mon 09:30:44 PM 38.6111 -104.4258 250° West 415 478 36,000  Level Denver Center
Mon 09:31:46 PM 38.5731 -104.5633 251° West 412 474 36,000  Level Denver Center
Mon 09:32:48 PM 38.5350 -104.7011 251° West 411 473 36,000  Level Denver Center
Mon 09:33:49 PM 38.4953 -104.8406 250° West 415 478 36,000  Level Denver Center
Mon 09:34:51 PM 38.4492 -105.0064 250° West 415 478 36,000  Level Denver Center
Mon 09:35:53 PM 38.4092 -105.1456 250° West 417 480 36,000  Level Denver Center
Mon 09:36:55 PM 38.3700 -105.2842 250° West 418 481 36,000  Level Denver Center
Mon 09:37:57 PM 38.3283 -105.4278 250° West 417 480 36,000  Level Denver Center
Mon 09:38:59 PM 38.2897 -105.5622 250° West 421 484 36,000  Level Denver Center
Mon 09:40:00 PM 38.2450 -105.7147 250° West 416 479 36,000  Level Denver Center
Mon 09:41:02 PM 38.2061 -105.8486 250° West 420 483 36,000  Level Denver Center
Mon 09:42:04 PM 38.1919 -106.0114 264° West 420 483 36,000  Level Denver Center
Mon 09:43:06 PM 38.1889 -106.1542 268° West 420 483 36,000  Level Denver Center
Mon 09:44:08 PM 38.1742 -106.3125 263° West 416 479 36,000  Level Denver Center
Mon 09:45:10 PM 38.1325 -106.4528 249° West 423 487 36,000  Level Denver Center
Mon 09:46:12 PM 38.0894 -106.5931 249° West 426 490 36,000  Level Denver Center
Mon 09:47:13 PM 38.0400 -106.7478 248° West 425 489 36,000  Level Denver Center
Mon 09:48:15 PM 37.9986 -106.8817 249° West 425 489 36,000  Level Denver Center
Mon 09:49:17 PM 37.9489 -107.0353 248° West 422 486 36,000  Level Denver Center
Mon 09:50:19 PM 37.9072 -107.1672 248° West 420 483 36,000  Level Denver Center
Mon 09:51:21 PM 37.8597 -107.3142 248° West 418 481 36,000  Level Denver Center
Mon 09:52:23 PM 37.8172 -107.4456 248° West 421 484 36,000  Level Denver Center
Mon 09:53:37 PM 37.7678 -107.5967 248° West 418 481 36,000  Level Denver Center
Mon 09:54:39 PM 37.7181 -107.7503 248° West 423 487 36,000  Level Denver Center
Mon 09:55:41 PM 37.6675 -107.9019 247° West 421 484 36,000  Level Denver Center
Mon 09:56:43 PM 37.6239 -108.0350 248° West 426 490 36,000  Level Denver Center
Mon 09:57:44 PM 37.5731 -108.1889 247° West 426 490 36,000  Level Denver Center
Mon 09:58:46 PM 37.5297 -108.3222 248° West 428 493 36,000  Level Denver Center
Mon 09:59:48 PM 37.4778 -108.4733 247° West 424 488 36,000  Level Denver Center
Mon 10:00:50 PM 37.4336 -108.6028 247° West 422 486 36,000  Level Denver Center
Mon 10:01:52 PM 37.3819 -108.7561 247° West 425 489 36,000  Level Denver Center
Mon 10:02:54 PM 37.3383 -108.8867 247° West 424 488 36,000  Level Denver Center
Mon 10:03:56 PM 37.2933 -109.0150 246° West 421 484 36,000  Level Denver Center
Mon 10:04:58 PM 37.2431 -109.1647 247° West 418 481 36,000  Level Denver Center
Mon 10:06:11 PM 37.1992 -109.2917 247° West 416 479 36,000  Level Denver Center
Mon 10:07:14 PM 37.1408 -109.4597 247° West 411 473 36,000  Level Denver Center
Mon 10:08:15 PM 37.0903 -109.6075 247° West 413 475 36,000  Level Denver Center
Mon 10:09:17 PM 37.0461 -109.7322 246° West 412 474 36,000  Level Denver Center
Mon 10:10:19 PM 36.9939 -109.8794 246° West 413 475 36,000  Level Denver Center
Mon 10:11:21 PM 36.9492 -110.0061 246° West 416 479 36,000  Level Denver Center
Mon 10:12:23 PM 36.9047 -110.1322 246° West 416 479 36,000  Level Denver Center
Mon 10:13:25 PM 36.8575 -110.2656 246° West 419 482 36,000  Level Denver Center
Mon 10:14:27 PM 36.8003 -110.4244 246° West 417 480 36,000  Level Denver Center
Mon 10:15:28 PM 36.7528 -110.5575 246° West 421 484 36,000  Level Denver Center
Mon 10:16:30 PM 36.7144 -110.6647 246° West 423 487 36,000  Level Denver Center
Mon 10:17:32 PM 36.6583 -110.8211 246° West 413 475 36,000  Level Denver Center
Mon 10:18:34 PM 36.6106 -110.9517 246° West 412 474 36,000  Level Denver Center
Mon 10:19:36 PM 36.5647 -111.0819 246° West 412 474 36,000  Level Denver Center
Mon 10:20:38 PM 36.5136 -111.2139 244° Southwest 418 481 36,000  Level Denver Center
Mon 10:21:39 PM 36.4578 -111.3675 246° West 411 473 36,000  Level Denver Center
Mon 10:22:41 PM 36.4103 -111.4964 245° Southwest 410 472 36,000  Level Denver Center
Mon 10:23:43 PM 36.3706 -111.5994 244° Southwest 411 473 36,000  Level Denver Center
Mon 10:24:18 PM 36.3439 -111.6742 246° West 407 468 36,000  Level Los Angeles Center
Mon 10:25:20 PM 36.2864 -111.8275 245° Southwest 408 470 36,000  Level Los Angeles Center
Mon 10:26:21 PM 36.2369 -111.9567 245° Southwest 411 473 36,000  Level Los Angeles Center
Mon 10:27:23 PM 36.1892 -112.0808 245° Southwest 417 480 36,000  Level Los Angeles Center
Mon 10:28:25 PM 36.1417 -112.2097 246° West 416 479 36,000  Level Los Angeles Center
Mon 10:29:26 PM 36.1000 -112.3178 245° Southwest 410 472 36,000  Level Los Angeles Center
Mon 10:30:28 PM 36.0419 -112.4703 245° Southwest 409 471 36,000  Level Los Angeles Center
Mon 10:31:30 PM 35.9839 -112.6208 245° Southwest 405 466 36,000  Level Los Angeles Center
Mon 10:32:32 PM 35.9397 -112.7378 245° Southwest 411 473 36,000  Level Los Angeles Center
Mon 10:33:33 PM 35.8908 -112.8633 244° Southwest 410 472 36,000  Level Los Angeles Center
Mon 10:34:35 PM 35.8417 -112.9919 245° Southwest 418 481 36,000  Level Los Angeles Center
Mon 10:35:36 PM 35.7931 -113.1178 245° Southwest 415 478 36,000  Level Los Angeles Center
Mon 10:36:38 PM 35.7353 -113.2647 244° Southwest 404 465 36,000  Level Los Angeles Center
Mon 10:37:40 PM 35.6872 -113.3869 244° Southwest 403 464 36,000  Level Los Angeles Center
Mon 10:38:42 PM 35.6389 -113.5094 244° Southwest 404 465 36,000  Level Los Angeles Center
Mon 10:39:44 PM 35.5889 -113.6333 244° Southwest 408 470 36,000  Level Los Angeles Center
Mon 10:40:45 PM 35.5264 -113.7856 243° Southwest 417 480 36,000  Level Los Angeles Center
Mon 10:41:47 PM 35.4756 -113.9100 243° Southwest 415 478 36,000  Level Los Angeles Center
Mon 10:42:49 PM 35.4203 -114.0472 244° Southwest 409 471 36,000  Level Los Angeles Center
Mon 10:44:03 PM 35.3678 -114.1719 243° Southwest 409 471 36,000  Level Los Angeles Center
Mon 10:45:05 PM 35.3069 -114.3244 244° Southwest 413 475 36,000  Level Los Angeles Center
Mon 10:46:07 PM 35.2553 -114.4492 243° Southwest 410 472 36,000  Level Los Angeles Center
Mon 10:47:08 PM 35.2047 -114.5697 243° Southwest 401 461 36,000  Level Los Angeles Center
Mon 10:48:10 PM 35.1528 -114.6931 243° Southwest 405 466 36,000  Level Los Angeles Center
Mon 10:49:12 PM 35.1028 -114.8139 243° Southwest 399 459 36,000  Level Los Angeles Center
Mon 10:50:14 PM 35.0419 -114.9603 243° Southwest 401 461 36,000  Level Los Angeles Center
Mon 10:51:16 PM 34.9903 -115.0828 243° Southwest 403 464 36,000  Level Los Angeles Center
Mon 10:52:17 PM 34.9383 -115.2047 243° Southwest 404 465 36,000  Level Los Angeles Center
Mon 10:53:19 PM 34.8847 -115.3289 242° Southwest 410 472 36,000  Level Los Angeles Center
Mon 10:54:21 PM 34.8322 -115.4550 243° Southwest 413 475 36,000 -532 Level Los Angeles Center
Mon 10:55:23 PM 34.7761 -115.5864 243° Southwest 401 461 34,900 -1,065 Descending Los Angeles Center
Mon 10:56:25 PM 34.7253 -115.7031 242° Southwest 392 451 33,800 -1,024 Descending Los Angeles Center
Mon 10:57:26 PM 34.6758 -115.8178 242° Southwest 384 442 32,800 -976 Descending Los Angeles Center
Mon 10:58:28 PM 34.6269 -115.9322 243° Southwest 382 440 31,800 -968 Descending Los Angeles Center
Mon 10:59:30 PM 34.5783 -116.0431 242° Southwest 375 432 30,800 -968 Descending Los Angeles Center
Mon 11:00:32 PM 34.5319 -116.1500 242° Southwest 363 418 29,800 -968 Descending Los Angeles Center
Mon 11:01:34 PM 34.4858 -116.2547 242° Southwest 355 409 28,800 -976 Descending Los Angeles Center
Mon 11:02:35 PM 34.4408 -116.3569 242° Southwest 345 397 27,800 -1,073 Descending Los Angeles Center
Mon 11:03:37 PM 34.3872 -116.4794 242° Southwest 343 395 26,600 -1,113 Descending Los Angeles Center
Mon 11:04:39 PM 34.3425 -116.5811 242° Southwest 342 394 25,500 -1,016 Descending Los Angeles Center
Mon 11:05:41 PM 34.2964 -116.6839 242° Southwest 346 398 24,500 -976 Descending Los Angeles Center
Mon 11:06:42 PM 34.2517 -116.7847 242° Southwest 341 392 23,500 -976 Descending Los Angeles Center
Mon 11:07:44 PM 34.2078 -116.8856 242° Southwest 339 390 22,500 -1,161 Descending Los Angeles Center
Mon 11:08:46 PM 34.1644 -116.9817 241° Southwest 326 375 21,100 -1,597 Descending Los Angeles Center
Mon 11:09:48 PM 34.1178 -117.0858 242° Southwest 314 361 19,200 -1,615 Descending Los Angeles Center
Mon 11:10:04 PM 34.1000 -117.1167 235° Southwest 306 352 19,000 -1,026 Descending Southern California TRACON
Mon 11:11:04 PM 34.0667 -117.2000 244° Southwest 297 342 17,900 -1,400 Descending Southern California TRACON
Mon 11:12:04 PM 34.0500 -117.3000 259° West 291 335 16,200 -1,650 Descending Southern California TRACON
Mon 11:13:04 PM 34.0333 -117.3833 256° West 290 334 14,600 -1,450 Descending Southern California TRACON
Mon 11:14:04 PM 34.0333 -117.4833 270° West 267 307 13,300 -1,350 Descending Southern California TRACON
Mon 11:15:04 PM 34.0333 -117.5833 270° West 264 304 11,900 -1,400 Descending Southern California TRACON
Mon 11:16:04 PM 34.0333 -117.6667 270° West 232 267 10,500 -1,250 Descending Southern California TRACON
Mon 11:17:04 PM 34.0167 -117.7500 256° West 250 288 9,400 -1,200 Descending Southern California TRACON
Mon 11:18:04 PM 34.0167 -117.8333 270° West 258 297 8,100 -1,200 Descending Southern California TRACON
Mon 11:19:04 PM 34.0000 -117.9167 256° West 251 289 7,000 -1,000 Descending Southern California TRACON
Mon 11:20:04 PM 34.0000 -118.0000 270° West 245 282 6,100 -850 Descending Southern California TRACON
Mon 11:21:04 PM 33.9833 -118.0667 253° West 224 258 5,300 -850 Descending Southern California TRACON
Mon 11:22:04 PM 33.9833 -118.1333 270° West 198 228 4,400 -1,000 Descending Southern California TRACON
Mon 11:23:04 PM 33.9667 -118.2000 253° West 197 227 3,300 -1,041 Descending Southern California TRACON
Mon 11:24:05 PM 33.9667 -118.2667 270° West 187 215 2,300 -893 Descending Southern California TRACON
Mon 11:25:05 PM 33.9667 -118.3333 270° West 160 184 1,500 -850 Descending Southern California TRACON
Mon 11:26:05 PM 33.9500 -118.3667 239° Southwest 138 159 600 -641 Descending Southern California TRACON
Mon 11:27:16 PM 33.9508 -118.4278 271° West 147 169 100 -423 Descending Los Angeles Center
Mon 11:29:00 PM 33.9425 -118.4081 259° West  Level Estimated

Login

Don't have an account? Register now (free) for customized features, flight alerts, and more!